sensor_id;sensor_type;location;lat;lon;timestamp;P1;durP1;ratioP1;P2;durP2;ratioP2
8716;SDS011;4395;48.554;8.820;2023-06-14T00:00:35;5.30;;;4.30;;
8716;SDS011;4395;48.554;8.820;2023-06-14T00:02:40;4.80;;;4.17;;
8716;SDS011;4395;48.554;8.820;2023-06-14T00:04:44;4.27;;;3.80;;
8716;SDS011;4395;48.554;8.820;2023-06-14T00:06:46;4.07;;;3.73;;
8716;SDS011;4395;48.554;8.820;2023-06-14T00:08:50;5.10;;;3.70;;
8716;SDS011;4395;48.554;8.820;2023-06-14T00:10:53;4.10;;;3.63;;
8716;SDS011;4395;48.554;8.820;2023-06-14T00:12:55;4.40;;;4.00;;
8716;SDS011;4395;48.554;8.820;2023-06-14T00:15:00;4.17;;;3.77;;
8716;SDS011;4395;48.554;8.820;2023-06-14T00:17:03;4.10;;;3.67;;
8716;SDS011;4395;48.554;8.820;2023-06-14T00:19:09;4.93;;;3.67;;
8716;SDS011;4395;48.554;8.820;2023-06-14T00:21:12;7.80;;;3.60;;
8716;SDS011;4395;48.554;8.820;2023-06-14T00:23:15;4.00;;;3.60;;
8716;SDS011;4395;48.554;8.820;2023-06-14T00:25:18;4.73;;;3.63;;
8716;SDS011;4395;48.554;8.820;2023-06-14T00:27:29;5.40;;;4.10;;
8716;SDS011;4395;48.554;8.820;2023-06-14T00:29:32;4.60;;;3.20;;
8716;SDS011;4395;48.554;8.820;2023-06-14T00:31:39;4.60;;;3.47;;
8716;SDS011;4395;48.554;8.820;2023-06-14T00:33:42;4.83;;;3.60;;
8716;SDS011;4395;48.554;8.820;2023-06-14T00:35:46;6.07;;;3.73;;
8716;SDS011;4395;48.554;8.820;2023-06-14T00:37:49;3.90;;;3.60;;
8716;SDS011;4395;48.554;8.820;2023-06-14T00:39:52;4.50;;;3.80;;
8716;SDS011;4395;48.554;8.820;2023-06-14T00:41:55;5.60;;;3.57;;
8716;SDS011;4395;48.554;8.820;2023-06-14T00:43:59;5.73;;;3.70;;
8716;SDS011;4395;48.554;8.820;2023-06-14T00:46:02;6.13;;;4.00;;
8716;SDS011;4395;48.554;8.820;2023-06-14T00:48:07;4.80;;;4.03;;
8716;SDS011;4395;48.554;8.820;2023-06-14T00:50:11;3.87;;;3.57;;
8716;SDS011;4395;48.554;8.820;2023-06-14T00:52:14;4.23;;;3.93;;
8716;SDS011;4395;48.554;8.820;2023-06-14T00:54:18;4.50;;;3.70;;
8716;SDS011;4395;48.554;8.820;2023-06-14T00:56:20;6.10;;;4.90;;
8716;SDS011;4395;48.554;8.820;2023-06-14T00:58:24;5.50;;;3.97;;
8716;SDS011;4395;48.554;8.820;2023-06-14T01:00:28;4.67;;;4.27;;
8716;SDS011;4395;48.554;8.820;2023-06-14T01:02:31;5.87;;;4.27;;
8716;SDS011;4395;48.554;8.820;2023-06-14T01:04:36;4.93;;;4.17;;
8716;SDS011;4395;48.554;8.820;2023-06-14T01:06:41;5.37;;;3.43;;
8716;SDS011;4395;48.554;8.820;2023-06-14T01:08:56;4.97;;;3.97;;
8716;SDS011;4395;48.554;8.820;2023-06-14T01:11:07;4.00;;;3.60;;
8716;SDS011;4395;48.554;8.820;2023-06-14T01:13:23;4.57;;;3.67;;
8716;SDS011;4395;48.554;8.820;2023-06-14T01:15:31;5.80;;;4.00;;
8716;SDS011;4395;48.554;8.820;2023-06-14T01:17:36;5.80;;;3.83;;
8716;SDS011;4395;48.554;8.820;2023-06-14T01:19:46;4.40;;;3.80;;
8716;SDS011;4395;48.554;8.820;2023-06-14T01:21:49;4.40;;;4.00;;
8716;SDS011;4395;48.554;8.820;2023-06-14T01:23:53;5.40;;;3.63;;
8716;SDS011;4395;48.554;8.820;2023-06-14T01:26:00;4.70;;;4.03;;
8716;SDS011;4395;48.554;8.820;2023-06-14T01:28:05;4.33;;;3.93;;
8716;SDS011;4395;48.554;8.820;2023-06-14T01:30:12;4.17;;;3.80;;
8716;SDS011;4395;48.554;8.820;2023-06-14T01:32:15;4.80;;;3.70;;
8716;SDS011;4395;48.554;8.820;2023-06-14T01:34:19;7.03;;;3.73;;
8716;SDS011;4395;48.554;8.820;2023-06-14T01:36:25;5.80;;;3.80;;
8716;SDS011;4395;48.554;8.820;2023-06-14T01:38:31;4.53;;;4.00;;
8716;SDS011;4395;48.554;8.820;2023-06-14T01:40:36;4.73;;;4.23;;
8716;SDS011;4395;48.554;8.820;2023-06-14T01:42:40;5.77;;;4.10;;
8716;SDS011;4395;48.554;8.820;2023-06-14T01:44:44;5.33;;;4.20;;
8716;SDS011;4395;48.554;8.820;2023-06-14T01:46:50;4.17;;;3.50;;
8716;SDS011;4395;48.554;8.820;2023-06-14T01:48:56;4.23;;;3.83;;
8716;SDS011;4395;48.554;8.820;2023-06-14T01:51:00;5.07;;;3.80;;
8716;SDS011;4395;48.554;8.820;2023-06-14T01:53:05;4.23;;;3.83;;
8716;SDS011;4395;48.554;8.820;2023-06-14T01:55:11;6.87;;;3.80;;
8716;SDS011;4395;48.554;8.820;2023-06-14T01:57:15;3.57;;;3.27;;
8716;SDS011;4395;48.554;8.820;2023-06-14T01:59:18;6.17;;;4.20;;
8716;SDS011;4395;48.554;8.820;2023-06-14T02:01:21;6.03;;;4.03;;
8716;SDS011;4395;48.554;8.820;2023-06-14T02:03:24;4.23;;;3.77;;
8716;SDS011;4395;48.554;8.820;2023-06-14T02:05:27;6.07;;;3.90;;
8716;SDS011;4395;48.554;8.820;2023-06-14T02:07:30;4.30;;;3.90;;
8716;SDS011;4395;48.554;8.820;2023-06-14T02:09:33;4.73;;;4.20;;
8716;SDS011;4395;48.554;8.820;2023-06-14T02:11:36;4.23;;;3.77;;
8716;SDS011;4395;48.554;8.820;2023-06-14T02:13:40;4.57;;;3.90;;
8716;SDS011;4395;48.554;8.820;2023-06-14T02:15:43;4.47;;;3.87;;
8716;SDS011;4395;48.554;8.820;2023-06-14T02:17:47;5.67;;;4.47;;
8716;SDS011;4395;48.554;8.820;2023-06-14T02:19:51;5.70;;;4.37;;
8716;SDS011;4395;48.554;8.820;2023-06-14T02:21:53;4.70;;;4.17;;
8716;SDS011;4395;48.554;8.820;2023-06-14T02:23:56;5.53;;;4.30;;
8716;SDS011;4395;48.554;8.820;2023-06-14T02:26:02;8.27;;;4.10;;
8716;SDS011;4395;48.554;8.820;2023-06-14T02:28:07;4.87;;;4.23;;
8716;SDS011;4395;48.554;8.820;2023-06-14T02:30:14;5.43;;;4.30;;
8716;SDS011;4395;48.554;8.820;2023-06-14T02:32:18;5.37;;;4.50;;
8716;SDS011;4395;48.554;8.820;2023-06-14T02:34:21;5.73;;;4.27;;
8716;SDS011;4395;48.554;8.820;2023-06-14T02:36:24;5.20;;;4.20;;
8716;SDS011;4395;48.554;8.820;2023-06-14T02:38:27;5.00;;;4.47;;
8716;SDS011;4395;48.554;8.820;2023-06-14T02:40:30;7.27;;;4.50;;
8716;SDS011;4395;48.554;8.820;2023-06-14T02:42:33;4.70;;;4.30;;
8716;SDS011;4395;48.554;8.820;2023-06-14T02:44:38;5.33;;;4.83;;
8716;SDS011;4395;48.554;8.820;2023-06-14T02:46:42;9.20;;;4.47;;
8716;SDS011;4395;48.554;8.820;2023-06-14T02:48:45;4.67;;;4.27;;
8716;SDS011;4395;48.554;8.820;2023-06-14T02:50:48;6.70;;;4.60;;
8716;SDS011;4395;48.554;8.820;2023-06-14T02:52:51;4.70;;;4.30;;
8716;SDS011;4395;48.554;8.820;2023-06-14T02:54:57;5.50;;;5.00;;
8716;SDS011;4395;48.554;8.820;2023-06-14T02:57:01;5.20;;;4.70;;
8716;SDS011;4395;48.554;8.820;2023-06-14T02:59:04;5.27;;;4.63;;
8716;SDS011;4395;48.554;8.820;2023-06-14T03:01:07;5.17;;;4.70;;
8716;SDS011;4395;48.554;8.820;2023-06-14T03:03:16;7.23;;;5.33;;
8716;SDS011;4395;48.554;8.820;2023-06-14T03:05:25;5.97;;;4.47;;
8716;SDS011;4395;48.554;8.820;2023-06-14T03:07:29;4.80;;;4.40;;
8716;SDS011;4395;48.554;8.820;2023-06-14T03:09:33;6.30;;;4.40;;
8716;SDS011;4395;48.554;8.820;2023-06-14T03:11:36;5.63;;;4.40;;
8716;SDS011;4395;48.554;8.820;2023-06-14T03:13:39;5.10;;;4.20;;
8716;SDS011;4395;48.554;8.820;2023-06-14T03:15:43;5.20;;;4.10;;
8716;SDS011;4395;48.554;8.820;2023-06-14T03:17:46;6.17;;;4.10;;
8716;SDS011;4395;48.554;8.820;2023-06-14T03:19:52;4.53;;;4.07;;
8716;SDS011;4395;48.554;8.820;2023-06-14T03:21:55;4.73;;;4.20;;
8716;SDS011;4395;48.554;8.820;2023-06-14T03:24:03;4.70;;;4.30;;
8716;SDS011;4395;48.554;8.820;2023-06-14T03:26:07;4.63;;;4.23;;
8716;SDS011;4395;48.554;8.820;2023-06-14T03:28:10;4.87;;;4.37;;
8716;SDS011;4395;48.554;8.820;2023-06-14T03:30:13;5.53;;;4.60;;
8716;SDS011;4395;48.554;8.820;2023-06-14T03:32:20;5.10;;;3.90;;
8716;SDS011;4395;48.554;8.820;2023-06-14T03:34:23;4.40;;;4.00;;
8716;SDS011;4395;48.554;8.820;2023-06-14T03:36:27;5.20;;;3.97;;
8716;SDS011;4395;48.554;8.820;2023-06-14T03:38:30;4.97;;;4.13;;
8716;SDS011;4395;48.554;8.820;2023-06-14T03:40:33;4.43;;;4.10;;
8716;SDS011;4395;48.554;8.820;2023-06-14T03:42:38;4.53;;;4.13;;
8716;SDS011;4395;48.554;8.820;2023-06-14T03:44:41;5.23;;;4.50;;
8716;SDS011;4395;48.554;8.820;2023-06-14T03:46:44;5.40;;;4.40;;
8716;SDS011;4395;48.554;8.820;2023-06-14T03:48:48;4.70;;;4.30;;
8716;SDS011;4395;48.554;8.820;2023-06-14T03:50:52;5.17;;;4.00;;
8716;SDS011;4395;48.554;8.820;2023-06-14T03:52:59;5.10;;;4.03;;
8716;SDS011;4395;48.554;8.820;2023-06-14T03:55:03;4.47;;;4.03;;
8716;SDS011;4395;48.554;8.820;2023-06-14T03:57:11;6.40;;;4.53;;
8716;SDS011;4395;48.554;8.820;2023-06-14T03:59:15;5.37;;;4.40;;
8716;SDS011;4395;48.554;8.820;2023-06-14T04:01:18;4.97;;;4.50;;
8716;SDS011;4395;48.554;8.820;2023-06-14T04:03:21;6.63;;;4.00;;
8716;SDS011;4395;48.554;8.820;2023-06-14T04:05:32;7.53;;;4.60;;
8716;SDS011;4395;48.554;8.820;2023-06-14T04:07:35;7.03;;;4.70;;
8716;SDS011;4395;48.554;8.820;2023-06-14T04:09:44;8.70;;;4.57;;
8716;SDS011;4395;48.554;8.820;2023-06-14T04:11:47;5.27;;;4.03;;
8716;SDS011;4395;48.554;8.820;2023-06-14T04:13:50;5.37;;;4.13;;
8716;SDS011;4395;48.554;8.820;2023-06-14T04:15:55;9.47;;;4.47;;
8716;SDS011;4395;48.554;8.820;2023-06-14T04:18:03;5.07;;;4.57;;
8716;SDS011;4395;48.554;8.820;2023-06-14T04:20:06;7.23;;;4.73;;
8716;SDS011;4395;48.554;8.820;2023-06-14T04:22:12;6.47;;;5.10;;
8716;SDS011;4395;48.554;8.820;2023-06-14T04:24:14;5.80;;;5.30;;
8716;SDS011;4395;48.554;8.820;2023-06-14T04:26:22;6.27;;;4.97;;
8716;SDS011;4395;48.554;8.820;2023-06-14T04:28:31;9.83;;;5.67;;
8716;SDS011;4395;48.554;8.820;2023-06-14T04:30:38;6.77;;;5.03;;
8716;SDS011;4395;48.554;8.820;2023-06-14T04:32:42;5.87;;;4.77;;
8716;SDS011;4395;48.554;8.820;2023-06-14T04:34:46;8.00;;;4.33;;
8716;SDS011;4395;48.554;8.820;2023-06-14T04:36:50;7.43;;;4.80;;
8716;SDS011;4395;48.554;8.820;2023-06-14T04:38:55;5.77;;;4.27;;
8716;SDS011;4395;48.554;8.820;2023-06-14T04:41:01;7.10;;;4.33;;
8716;SDS011;4395;48.554;8.820;2023-06-14T04:43:05;7.17;;;4.07;;
8716;SDS011;4395;48.554;8.820;2023-06-14T04:45:09;7.30;;;6.50;;
8716;SDS011;4395;48.554;8.820;2023-06-14T04:47:13;6.03;;;4.80;;
8716;SDS011;4395;48.554;8.820;2023-06-14T04:49:17;6.73;;;4.90;;
8716;SDS011;4395;48.554;8.820;2023-06-14T04:51:20;7.23;;;4.97;;
8716;SDS011;4395;48.554;8.820;2023-06-14T04:53:31;6.07;;;4.70;;
8716;SDS011;4395;48.554;8.820;2023-06-14T04:55:33;5.10;;;4.60;;
8716;SDS011;4395;48.554;8.820;2023-06-14T04:57:38;5.63;;;4.87;;
8716;SDS011;4395;48.554;8.820;2023-06-14T04:59:45;8.47;;;5.30;;
8716;SDS011;4395;48.554;8.820;2023-06-14T05:01:48;7.77;;;4.87;;
8716;SDS011;4395;48.554;8.820;2023-06-14T05:03:52;5.77;;;4.43;;
8716;SDS011;4395;48.554;8.820;2023-06-14T05:05:55;8.60;;;5.37;;
8716;SDS011;4395;48.554;8.820;2023-06-14T05:07:58;7.87;;;5.23;;
8716;SDS011;4395;48.554;8.820;2023-06-14T05:10:02;6.00;;;4.90;;
8716;SDS011;4395;48.554;8.820;2023-06-14T05:12:05;6.10;;;4.73;;
8716;SDS011;4395;48.554;8.820;2023-06-14T05:14:10;6.67;;;4.50;;
8716;SDS011;4395;48.554;8.820;2023-06-14T05:16:14;11.83;;;5.00;;
8716;SDS011;4395;48.554;8.820;2023-06-14T05:18:20;5.33;;;4.83;;
8716;SDS011;4395;48.554;8.820;2023-06-14T05:20:23;7.90;;;5.40;;
8716;SDS011;4395;48.554;8.820;2023-06-14T05:22:27;6.37;;;5.07;;
8716;SDS011;4395;48.554;8.820;2023-06-14T05:24:31;6.97;;;5.23;;
8716;SDS011;4395;48.554;8.820;2023-06-14T05:26:34;6.40;;;4.83;;
8716;SDS011;4395;48.554;8.820;2023-06-14T05:28:36;11.97;;;5.23;;
8716;SDS011;4395;48.554;8.820;2023-06-14T05:30:39;8.83;;;5.27;;
8716;SDS011;4395;48.554;8.820;2023-06-14T05:32:44;8.63;;;5.30;;
8716;SDS011;4395;48.554;8.820;2023-06-14T05:34:47;9.80;;;4.17;;
8716;SDS011;4395;48.554;8.820;2023-06-14T05:36:50;9.63;;;5.00;;
8716;SDS011;4395;48.554;8.820;2023-06-14T05:38:52;8.40;;;5.27;;
8716;SDS011;4395;48.554;8.820;2023-06-14T05:40:59;9.47;;;4.50;;
8716;SDS011;4395;48.554;8.820;2023-06-14T05:43:01;10.07;;;4.83;;
8716;SDS011;4395;48.554;8.820;2023-06-14T05:45:05;6.17;;;5.10;;
8716;SDS011;4395;48.554;8.820;2023-06-14T05:47:08;5.17;;;4.67;;
8716;SDS011;4395;48.554;8.820;2023-06-14T05:49:13;5.43;;;4.93;;
8716;SDS011;4395;48.554;8.820;2023-06-14T05:51:15;5.07;;;4.60;;
8716;SDS011;4395;48.554;8.820;2023-06-14T05:53:20;6.60;;;4.67;;
8716;SDS011;4395;48.554;8.820;2023-06-14T05:55:23;9.67;;;4.87;;
8716;SDS011;4395;48.554;8.820;2023-06-14T05:57:26;7.70;;;4.80;;
8716;SDS011;4395;48.554;8.820;2023-06-14T05:59:29;6.30;;;4.70;;
8716;SDS011;4395;48.554;8.820;2023-06-14T06:01:32;5.40;;;4.70;;
8716;SDS011;4395;48.554;8.820;2023-06-14T06:03:35;8.37;;;4.80;;
8716;SDS011;4395;48.554;8.820;2023-06-14T06:05:39;6.80;;;5.00;;
8716;SDS011;4395;48.554;8.820;2023-06-14T06:07:42;9.10;;;5.63;;
8716;SDS011;4395;48.554;8.820;2023-06-14T06:09:45;10.33;;;5.57;;
8716;SDS011;4395;48.554;8.820;2023-06-14T06:11:49;8.27;;;5.13;;
8716;SDS011;4395;48.554;8.820;2023-06-14T06:13:54;6.40;;;4.80;;
8716;SDS011;4395;48.554;8.820;2023-06-14T06:15:57;8.57;;;5.23;;
8716;SDS011;4395;48.554;8.820;2023-06-14T06:18:00;4.93;;;4.40;;
8716;SDS011;4395;48.554;8.820;2023-06-14T06:20:03;6.17;;;4.47;;
8716;SDS011;4395;48.554;8.820;2023-06-14T06:22:09;6.03;;;4.20;;
8716;SDS011;4395;48.554;8.820;2023-06-14T06:24:11;5.97;;;4.60;;
8716;SDS011;4395;48.554;8.820;2023-06-14T06:26:14;8.93;;;4.70;;
8716;SDS011;4395;48.554;8.820;2023-06-14T06:28:17;8.20;;;5.03;;
8716;SDS011;4395;48.554;8.820;2023-06-14T06:30:20;7.73;;;4.37;;
8716;SDS011;4395;48.554;8.820;2023-06-14T06:32:23;5.37;;;4.60;;
8716;SDS011;4395;48.554;8.820;2023-06-14T06:34:26;5.53;;;4.73;;
8716;SDS011;4395;48.554;8.820;2023-06-14T06:36:28;5.70;;;4.47;;
8716;SDS011;4395;48.554;8.820;2023-06-14T06:38:33;5.23;;;4.27;;
8716;SDS011;4395;48.554;8.820;2023-06-14T06:40:36;4.93;;;4.50;;
8716;SDS011;4395;48.554;8.820;2023-06-14T06:42:39;4.73;;;4.13;;
8716;SDS011;4395;48.554;8.820;2023-06-14T06:44:46;7.43;;;4.60;;
8716;SDS011;4395;48.554;8.820;2023-06-14T06:46:48;5.10;;;4.40;;
8716;SDS011;4395;48.554;8.820;2023-06-14T06:48:51;7.57;;;4.57;;
8716;SDS011;4395;48.554;8.820;2023-06-14T06:50:54;7.40;;;4.13;;
8716;SDS011;4395;48.554;8.820;2023-06-14T06:52:57;9.70;;;4.43;;
8716;SDS011;4395;48.554;8.820;2023-06-14T06:55:01;5.50;;;4.60;;
8716;SDS011;4395;48.554;8.820;2023-06-14T06:57:04;10.47;;;5.17;;
8716;SDS011;4395;48.554;8.820;2023-06-14T06:59:08;5.27;;;4.10;;
8716;SDS011;4395;48.554;8.820;2023-06-14T07:01:11;4.83;;;4.13;;
8716;SDS011;4395;48.554;8.820;2023-06-14T07:03:14;7.13;;;3.90;;
8716;SDS011;4395;48.554;8.820;2023-06-14T07:05:17;8.30;;;4.33;;
8716;SDS011;4395;48.554;8.820;2023-06-14T07:07:20;6.67;;;4.20;;
8716;SDS011;4395;48.554;8.820;2023-06-14T07:09:23;5.70;;;4.37;;
8716;SDS011;4395;48.554;8.820;2023-06-14T07:11:27;4.87;;;4.37;;
8716;SDS011;4395;48.554;8.820;2023-06-14T07:13:30;5.20;;;4.50;;
8716;SDS011;4395;48.554;8.820;2023-06-14T07:15:32;7.70;;;4.73;;
8716;SDS011;4395;48.554;8.820;2023-06-14T07:17:35;6.47;;;4.70;;
8716;SDS011;4395;48.554;8.820;2023-06-14T07:19:38;5.57;;;4.30;;
8716;SDS011;4395;48.554;8.820;2023-06-14T07:21:43;4.77;;;4.30;;
8716;SDS011;4395;48.554;8.820;2023-06-14T07:23:46;9.53;;;4.60;;
8716;SDS011;4395;48.554;8.820;2023-06-14T07:25:49;5.57;;;4.10;;
8716;SDS011;4395;48.554;8.820;2023-06-14T07:27:53;8.53;;;4.20;;
8716;SDS011;4395;48.554;8.820;2023-06-14T07:29:56;9.00;;;5.03;;
8716;SDS011;4395;48.554;8.820;2023-06-14T07:31:59;9.67;;;5.20;;
8716;SDS011;4395;48.554;8.820;2023-06-14T07:34:01;4.87;;;4.27;;
8716;SDS011;4395;48.554;8.820;2023-06-14T07:36:04;8.30;;;4.87;;
8716;SDS011;4395;48.554;8.820;2023-06-14T07:38:07;7.03;;;4.50;;
8716;SDS011;4395;48.554;8.820;2023-06-14T07:40:10;5.50;;;4.50;;
8716;SDS011;4395;48.554;8.820;2023-06-14T07:42:14;8.50;;;4.50;;
8716;SDS011;4395;48.554;8.820;2023-06-14T07:44:18;7.83;;;4.20;;
8716;SDS011;4395;48.554;8.820;2023-06-14T07:46:21;8.83;;;4.50;;
8716;SDS011;4395;48.554;8.820;2023-06-14T07:48:24;4.60;;;4.20;;
8716;SDS011;4395;48.554;8.820;2023-06-14T07:50:30;9.53;;;4.33;;
8716;SDS011;4395;48.554;8.820;2023-06-14T07:52:32;10.37;;;4.33;;
8716;SDS011;4395;48.554;8.820;2023-06-14T07:54:35;11.20;;;4.57;;
8716;SDS011;4395;48.554;8.820;2023-06-14T07:56:38;9.50;;;4.63;;
8716;SDS011;4395;48.554;8.820;2023-06-14T07:58:44;7.17;;;4.40;;
8716;SDS011;4395;48.554;8.820;2023-06-14T08:00:49;10.93;;;4.53;;
8716;SDS011;4395;48.554;8.820;2023-06-14T08:02:52;6.57;;;4.37;;
8716;SDS011;4395;48.554;8.820;2023-06-14T08:05:02;8.00;;;4.30;;
8716;SDS011;4395;48.554;8.820;2023-06-14T08:07:05;7.47;;;4.73;;
8716;SDS011;4395;48.554;8.820;2023-06-14T08:09:08;6.57;;;4.57;;
8716;SDS011;4395;48.554;8.820;2023-06-14T08:11:11;10.33;;;4.67;;
8716;SDS011;4395;48.554;8.820;2023-06-14T08:13:14;10.70;;;4.30;;
8716;SDS011;4395;48.554;8.820;2023-06-14T08:15:17;5.87;;;4.23;;
8716;SDS011;4395;48.554;8.820;2023-06-14T08:17:24;6.83;;;4.47;;
8716;SDS011;4395;48.554;8.820;2023-06-14T08:19:27;8.07;;;4.53;;
8716;SDS011;4395;48.554;8.820;2023-06-14T08:21:31;6.43;;;4.00;;
8716;SDS011;4395;48.554;8.820;2023-06-14T08:23:34;5.60;;;4.23;;
8716;SDS011;4395;48.554;8.820;2023-06-14T08:25:38;7.77;;;4.17;;
8716;SDS011;4395;48.554;8.820;2023-06-14T08:27:41;7.53;;;4.23;;
8716;SDS011;4395;48.554;8.820;2023-06-14T08:29:44;5.93;;;4.10;;
8716;SDS011;4395;48.554;8.820;2023-06-14T08:31:47;6.80;;;4.30;;
8716;SDS011;4395;48.554;8.820;2023-06-14T08:33:51;8.03;;;4.57;;
8716;SDS011;4395;48.554;8.820;2023-06-14T08:35:54;6.73;;;4.50;;
8716;SDS011;4395;48.554;8.820;2023-06-14T08:37:57;6.47;;;4.57;;
8716;SDS011;4395;48.554;8.820;2023-06-14T08:40:00;5.10;;;4.60;;
8716;SDS011;4395;48.554;8.820;2023-06-14T08:42:07;4.53;;;4.13;;
8716;SDS011;4395;48.554;8.820;2023-06-14T08:44:24;7.23;;;4.30;;
8716;SDS011;4395;48.554;8.820;2023-06-14T08:46:26;6.10;;;4.30;;
8716;SDS011;4395;48.554;8.820;2023-06-14T08:48:30;4.53;;;4.03;;
8716;SDS011;4395;48.554;8.820;2023-06-14T08:50:36;10.50;;;4.40;;
8716;SDS011;4395;48.554;8.820;2023-06-14T08:52:43;4.50;;;4.10;;
8716;SDS011;4395;48.554;8.820;2023-06-14T08:54:51;9.00;;;4.57;;
8716;SDS011;4395;48.554;8.820;2023-06-14T08:56:54;8.80;;;3.80;;
8716;SDS011;4395;48.554;8.820;2023-06-14T08:58:58;6.30;;;4.30;;
8716;SDS011;4395;48.554;8.820;2023-06-14T09:01:04;4.40;;;4.00;;
8716;SDS011;4395;48.554;8.820;2023-06-14T09:03:09;6.03;;;4.23;;
8716;SDS011;4395;48.554;8.820;2023-06-14T09:05:15;6.60;;;4.10;;
8716;SDS011;4395;48.554;8.820;2023-06-14T09:07:21;5.93;;;4.10;;
8716;SDS011;4395;48.554;8.820;2023-06-14T09:09:24;7.23;;;4.73;;
8716;SDS011;4395;48.554;8.820;2023-06-14T09:11:27;4.53;;;3.90;;
8716;SDS011;4395;48.554;8.820;2023-06-14T09:13:30;5.77;;;4.63;;
8716;SDS011;4395;48.554;8.820;2023-06-14T09:15:32;6.17;;;4.10;;
8716;SDS011;4395;48.554;8.820;2023-06-14T09:17:36;5.47;;;4.30;;
8716;SDS011;4395;48.554;8.820;2023-06-14T09:19:40;7.53;;;4.30;;
8716;SDS011;4395;48.554;8.820;2023-06-14T09:21:43;6.23;;;4.33;;
8716;SDS011;4395;48.554;8.820;2023-06-14T09:23:51;7.57;;;4.37;;
8716;SDS011;4395;48.554;8.820;2023-06-14T09:25:55;4.57;;;4.03;;
8716;SDS011;4395;48.554;8.820;2023-06-14T09:27:58;5.17;;;4.40;;
8716;SDS011;4395;48.554;8.820;2023-06-14T09:30:01;8.27;;;4.80;;
8716;SDS011;4395;48.554;8.820;2023-06-14T09:32:05;5.00;;;4.43;;
8716;SDS011;4395;48.554;8.820;2023-06-14T09:34:09;5.30;;;4.43;;
8716;SDS011;4395;48.554;8.820;2023-06-14T09:36:14;4.73;;;4.20;;
8716;SDS011;4395;48.554;8.820;2023-06-14T09:38:18;9.63;;;4.13;;
8716;SDS011;4395;48.554;8.820;2023-06-14T09:40:23;6.90;;;4.00;;
8716;SDS011;4395;48.554;8.820;2023-06-14T09:42:26;6.27;;;4.23;;
8716;SDS011;4395;48.554;8.820;2023-06-14T09:44:29;4.83;;;4.30;;
8716;SDS011;4395;48.554;8.820;2023-06-14T09:46:33;4.77;;;4.20;;
8716;SDS011;4395;48.554;8.820;2023-06-14T09:48:37;6.13;;;4.07;;
8716;SDS011;4395;48.554;8.820;2023-06-14T09:50:44;6.90;;;4.40;;
8716;SDS011;4395;48.554;8.820;2023-06-14T09:52:48;7.03;;;4.20;;
8716;SDS011;4395;48.554;8.820;2023-06-14T09:54:54;7.97;;;4.23;;
8716;SDS011;4395;48.554;8.820;2023-06-14T09:56:59;4.80;;;4.40;;
8716;SDS011;4395;48.554;8.820;2023-06-14T09:59:04;10.07;;;4.57;;
8716;SDS011;4395;48.554;8.820;2023-06-14T10:01:09;5.80;;;5.30;;
8716;SDS011;4395;48.554;8.820;2023-06-14T10:03:16;6.47;;;4.33;;
8716;SDS011;4395;48.554;8.820;2023-06-14T10:05:24;12.27;;;4.63;;
8716;SDS011;4395;48.554;8.820;2023-06-14T10:07:30;4.60;;;4.20;;
8716;SDS011;4395;48.554;8.820;2023-06-14T10:09:37;5.60;;;4.77;;
8716;SDS011;4395;48.554;8.820;2023-06-14T10:11:42;6.73;;;4.77;;
8716;SDS011;4395;48.554;8.820;2023-06-14T10:13:47;5.43;;;4.70;;
8716;SDS011;4395;48.554;8.820;2023-06-14T10:15:53;5.40;;;4.60;;
8716;SDS011;4395;48.554;8.820;2023-06-14T10:18:01;5.60;;;4.80;;
8716;SDS011;4395;48.554;8.820;2023-06-14T10:20:16;10.47;;;4.80;;
8716;SDS011;4395;48.554;8.820;2023-06-14T10:22:27;7.60;;;4.80;;
8716;SDS011;4395;48.554;8.820;2023-06-14T10:24:33;8.40;;;4.60;;
8716;SDS011;4395;48.554;8.820;2023-06-14T10:26:50;8.53;;;4.67;;
8716;SDS011;4395;48.554;8.820;2023-06-14T10:28:59;4.77;;;4.30;;
8716;SDS011;4395;48.554;8.820;2023-06-14T10:31:04;4.53;;;4.13;;
8716;SDS011;4395;48.554;8.820;2023-06-14T10:33:08;7.50;;;4.70;;
8716;SDS011;4395;48.554;8.820;2023-06-14T10:35:15;6.17;;;4.33;;
8716;SDS011;4395;48.554;8.820;2023-06-14T10:37:19;5.50;;;4.83;;
8716;SDS011;4395;48.554;8.820;2023-06-14T10:39:22;6.07;;;4.47;;
8716;SDS011;4395;48.554;8.820;2023-06-14T10:41:26;5.50;;;4.60;;
8716;SDS011;4395;48.554;8.820;2023-06-14T10:43:30;5.63;;;4.53;;
8716;SDS011;4395;48.554;8.820;2023-06-14T10:45:34;5.63;;;4.60;;
8716;SDS011;4395;48.554;8.820;2023-06-14T10:47:37;7.07;;;4.47;;
8716;SDS011;4395;48.554;8.820;2023-06-14T10:49:41;7.10;;;5.30;;
8716;SDS011;4395;48.554;8.820;2023-06-14T10:51:46;5.33;;;4.80;;
8716;SDS011;4395;48.554;8.820;2023-06-14T10:53:53;5.93;;;4.80;;
8716;SDS011;4395;48.554;8.820;2023-06-14T10:56:05;5.20;;;4.70;;
8716;SDS011;4395;48.554;8.820;2023-06-14T10:58:08;7.83;;;4.33;;
8716;SDS011;4395;48.554;8.820;2023-06-14T11:00:12;5.03;;;4.53;;
8716;SDS011;4395;48.554;8.820;2023-06-14T11:02:27;6.80;;;5.20;;
8716;SDS011;4395;48.554;8.820;2023-06-14T11:04:49;4.97;;;4.20;;
8716;SDS011;4395;48.554;8.820;2023-06-14T11:06:53;5.73;;;4.50;;
8716;SDS011;4395;48.554;8.820;2023-06-14T11:11:47;5.87;;;4.40;;
8716;SDS011;4395;48.554;8.820;2023-06-14T11:13:51;6.83;;;3.97;;
8716;SDS011;4395;48.554;8.820;2023-06-14T11:15:54;5.33;;;3.90;;
8716;SDS011;4395;48.554;8.820;2023-06-14T11:18:01;6.27;;;4.03;;
8716;SDS011;4395;48.554;8.820;2023-06-14T11:20:07;7.83;;;4.33;;
8716;SDS011;4395;48.554;8.820;2023-06-14T11:22:10;7.20;;;4.40;;
8716;SDS011;4395;48.554;8.820;2023-06-14T11:24:16;8.93;;;4.77;;
8716;SDS011;4395;48.554;8.820;2023-06-14T11:26:25;4.80;;;4.40;;
8716;SDS011;4395;48.554;8.820;2023-06-14T11:28:35;4.70;;;4.17;;
8716;SDS011;4395;48.554;8.820;2023-06-14T11:30:39;4.87;;;4.20;;
8716;SDS011;4395;48.554;8.820;2023-06-14T11:32:42;5.47;;;4.10;;
8716;SDS011;4395;48.554;8.820;2023-06-14T11:34:50;4.80;;;4.30;;
8716;SDS011;4395;48.554;8.820;2023-06-14T11:36:54;5.93;;;4.10;;
8716;SDS011;4395;48.554;8.820;2023-06-14T11:39:00;4.70;;;4.10;;
8716;SDS011;4395;48.554;8.820;2023-06-14T11:41:04;7.13;;;4.30;;
8716;SDS011;4395;48.554;8.820;2023-06-14T11:43:07;7.27;;;4.20;;
8716;SDS011;4395;48.554;8.820;2023-06-14T11:45:10;9.60;;;4.73;;
8716;SDS011;4395;48.554;8.820;2023-06-14T11:47:14;4.73;;;4.20;;
8716;SDS011;4395;48.554;8.820;2023-06-14T11:49:17;6.80;;;4.33;;
8716;SDS011;4395;48.554;8.820;2023-06-14T11:51:21;4.67;;;3.90;;
8716;SDS011;4395;48.554;8.820;2023-06-14T11:53:24;6.53;;;4.00;;
8716;SDS011;4395;48.554;8.820;2023-06-14T11:55:27;4.50;;;4.10;;
8716;SDS011;4395;48.554;8.820;2023-06-14T11:57:30;5.37;;;3.60;;
8716;SDS011;4395;48.554;8.820;2023-06-14T11:59:37;4.67;;;4.27;;
8716;SDS011;4395;48.554;8.820;2023-06-14T12:01:42;9.63;;;4.63;;
8716;SDS011;4395;48.554;8.820;2023-06-14T12:03:47;5.67;;;4.10;;
8716;SDS011;4395;48.554;8.820;2023-06-14T12:06:01;4.10;;;3.70;;
8716;SDS011;4395;48.554;8.820;2023-06-14T12:08:06;4.73;;;4.03;;
8716;SDS011;4395;48.554;8.820;2023-06-14T12:10:09;5.87;;;3.90;;
8716;SDS011;4395;48.554;8.820;2023-06-14T12:12:12;4.43;;;4.03;;
8716;SDS011;4395;48.554;8.820;2023-06-14T12:14:15;6.13;;;3.97;;
8716;SDS011;4395;48.554;8.820;2023-06-14T12:16:18;7.50;;;4.00;;
8716;SDS011;4395;48.554;8.820;2023-06-14T12:18:31;4.37;;;3.97;;
8716;SDS011;4395;48.554;8.820;2023-06-14T12:20:37;11.07;;;4.10;;
8716;SDS011;4395;48.554;8.820;2023-06-14T12:22:50;7.23;;;4.17;;
8716;SDS011;4395;48.554;8.820;2023-06-14T12:24:55;7.43;;;4.20;;
8716;SDS011;4395;48.554;8.820;2023-06-14T12:26:58;5.97;;;4.47;;
8716;SDS011;4395;48.554;8.820;2023-06-14T12:29:04;5.20;;;4.33;;
8716;SDS011;4395;48.554;8.820;2023-06-14T12:31:08;6.70;;;4.30;;
8716;SDS011;4395;48.554;8.820;2023-06-14T12:33:10;13.90;;;5.43;;
8716;SDS011;4395;48.554;8.820;2023-06-14T12:35:15;5.13;;;4.10;;
8716;SDS011;4395;48.554;8.820;2023-06-14T12:37:18;7.60;;;4.10;;
8716;SDS011;4395;48.554;8.820;2023-06-14T12:39:21;5.57;;;4.40;;
8716;SDS011;4395;48.554;8.820;2023-06-14T12:41:27;5.20;;;4.13;;
8716;SDS011;4395;48.554;8.820;2023-06-14T12:43:29;5.07;;;4.30;;
8716;SDS011;4395;48.554;8.820;2023-06-14T12:45:32;4.40;;;4.10;;
8716;SDS011;4395;48.554;8.820;2023-06-14T12:47:35;4.93;;;4.10;;
8716;SDS011;4395;48.554;8.820;2023-06-14T12:49:38;4.63;;;4.23;;
8716;SDS011;4395;48.554;8.820;2023-06-14T12:51:42;8.63;;;4.10;;
8716;SDS011;4395;48.554;8.820;2023-06-14T12:53:45;4.63;;;4.00;;
8716;SDS011;4395;48.554;8.820;2023-06-14T12:55:48;4.90;;;3.97;;